sensor_id;sensor_type;location;lat;lon;timestamp;pressure;altitude;pressure_sealevel;temperature;humidity
69955;BME280;57279;55.912;37.490;2023-04-06T10:01:33;100093.94;;;10.47;48.60
69955;BME280;57279;55.912;37.490;2023-04-06T10:04:18;100094.72;;;10.59;48.97
69955;BME280;57279;55.912;37.490;2023-04-06T10:06:47;100090.16;;;10.76;48.64
69955;BME280;57279;55.912;37.490;2023-04-06T10:09:18;100089.63;;;10.91;48.57
69955;BME280;57279;55.912;37.490;2023-04-06T10:11:49;100092.47;;;11.02;47.91
69955;BME280;57279;55.912;37.490;2023-04-06T10:14:15;100094.28;;;11.13;48.20
69955;BME280;57279;55.912;37.490;2023-04-06T10:16:41;100091.44;;;11.20;47.31
69955;BME280;57279;55.912;37.490;2023-04-06T10:19:16;100097.22;;;11.28;47.27
69955;BME280;57279;55.912;37.490;2023-04-06T10:21:45;100097.97;;;11.41;47.51
69955;BME280;57279;55.912;37.490;2023-04-06T10:24:13;100096.50;;;11.50;47.06
69955;BME280;57279;55.912;37.490;2023-04-06T10:26:39;100096.06;;;11.58;45.92
69955;BME280;57279;55.912;37.490;2023-04-06T10:29:05;100082.63;;;11.63;45.77
69955;BME280;57279;55.912;37.490;2023-04-06T10:31:39;100094.06;;;11.70;45.91
69955;BME280;57279;55.912;37.490;2023-04-06T10:34:07;100095.59;;;11.83;45.98
69955;BME280;57279;55.912;37.490;2023-04-06T10:36:33;100090.34;;;11.93;45.18
69955;BME280;57279;55.912;37.490;2023-04-06T10:39:04;100095.50;;;11.95;45.22
69955;BME280;57279;55.912;37.490;2023-04-06T10:41:45;100095.97;;;12.09;44.15
69955;BME280;57279;55.912;37.490;2023-04-06T10:44:24;100088.84;;;12.25;44.79
69955;BME280;57279;55.912;37.490;2023-04-06T10:46:57;100089.78;;;12.36;44.47
69955;BME280;57279;55.912;37.490;2023-04-06T10:49:25;100089.59;;;12.42;44.27
69955;BME280;57279;55.912;37.490;2023-04-06T10:51:55;100082.09;;;12.49;44.28
69955;BME280;57279;55.912;37.490;2023-04-06T10:54:23;100085.66;;;12.55;43.99
69955;BME280;57279;55.912;37.490;2023-04-06T10:56:49;100081.28;;;12.49;43.55
69955;BME280;57279;55.912;37.490;2023-04-06T10:59:19;100085.91;;;12.54;43.40
69955;BME280;57279;55.912;37.490;2023-04-06T11:01:45;100081.06;;;12.56;43.46
69955;BME280;57279;55.912;37.490;2023-04-06T11:04:16;100087.56;;;12.55;43.88
69955;BME280;57279;55.912;37.490;2023-04-06T11:06:46;100087.81;;;12.53;43.65
69955;BME280;57279;55.912;37.490;2023-04-06T11:09:23;100095.41;;;12.56;43.99
69955;BME280;57279;55.912;37.490;2023-04-06T11:11:50;100080.19;;;12.50;43.74
69955;BME280;57279;55.912;37.490;2023-04-06T11:14:16;100089.44;;;12.54;43.48
69955;BME280;57279;55.912;37.490;2023-04-06T11:16:41;100083.00;;;12.60;43.98
69955;BME280;57279;55.912;37.490;2023-04-06T11:19:07;100086.16;;;12.52;43.14
69955;BME280;57279;55.912;37.490;2023-04-06T11:21:40;100088.88;;;12.52;43.25
69955;BME280;57279;55.912;37.490;2023-04-06T11:26:52;100081.00;;;12.78;42.82
69955;BME280;57279;55.912;37.490;2023-04-06T11:29:22;100073.44;;;12.80;42.79
69955;BME280;57279;55.912;37.490;2023-04-06T11:32:08;100082.44;;;12.85;43.30
69955;BME280;57279;55.912;37.490;2023-04-06T11:34:36;100087.38;;;12.94;42.95
69955;BME280;57279;55.912;37.490;2023-04-06T11:37:04;100077.91;;;12.96;42.40
69955;BME280;57279;55.912;37.490;2023-04-06T11:39:55;100081.47;;;13.02;41.67
69955;BME280;57279;55.912;37.490;2023-04-06T11:42:34;100081.31;;;13.14;41.27
69955;BME280;57279;55.912;37.490;2023-04-06T11:45:00;100080.06;;;13.26;41.37
69955;BME280;57279;55.912;37.490;2023-04-06T11:47:36;100074.63;;;13.26;41.38
69955;BME280;57279;55.912;37.490;2023-04-06T11:50:12;100068.19;;;13.33;41.87
69955;BME280;57279;55.912;37.490;2023-04-06T11:52:40;100073.31;;;13.29;41.98
69955;BME280;57279;55.912;37.490;2023-04-06T11:55:17;100072.28;;;13.35;41.67
69955;BME280;57279;55.912;37.490;2023-04-06T11:57:43;100068.53;;;13.41;42.67
69955;BME280;57279;55.912;37.490;2023-04-06T12:00:10;100061.50;;;13.45;41.98
69955;BME280;57279;55.912;37.490;2023-04-06T12:02:37;100072.94;;;13.53;41.68
69955;BME280;57279;55.912;37.490;2023-04-06T12:05:04;100063.19;;;13.57;41.53
69955;BME280;57279;55.912;37.490;2023-04-06T12:07:31;100063.81;;;13.69;41.79
69955;BME280;57279;55.912;37.490;2023-04-06T12:09:58;100063.31;;;13.77;41.29
69955;BME280;57279;55.912;37.490;2023-04-06T12:12:24;100060.06;;;13.75;41.18
69955;BME280;57279;55.912;37.490;2023-04-06T12:14:50;100063.69;;;13.96;41.33
69955;BME280;57279;55.912;37.490;2023-04-06T12:17:15;100067.25;;;14.12;40.64
69955;BME280;57279;55.912;37.490;2023-04-06T12:19:41;100062.13;;;14.16;39.51
69955;BME280;57279;55.912;37.490;2023-04-06T12:22:08;100062.72;;;14.33;39.66
69955;BME280;57279;55.912;37.490;2023-04-06T12:24:33;100057.59;;;14.47;39.84
69955;BME280;57279;55.912;37.490;2023-04-06T12:26:59;100057.38;;;14.59;39.75
69955;BME280;57279;55.912;37.490;2023-04-06T12:29:25;100053.00;;;14.58;39.64
69955;BME280;57279;55.912;37.490;2023-04-06T12:31:50;100049.16;;;14.48;38.86
69955;BME280;57279;55.912;37.490;2023-04-06T12:34:16;100057.13;;;14.60;38.90
69955;BME280;57279;55.912;37.490;2023-04-06T12:36:42;100055.47;;;14.64;37.78
69955;BME280;57279;55.912;37.490;2023-04-06T12:39:08;100065.81;;;14.62;38.33
69955;BME280;57279;55.912;37.490;2023-04-06T12:41:33;100055.22;;;14.66;38.40
69955;BME280;57279;55.912;37.490;2023-04-06T12:43:59;100061.19;;;14.89;38.19
69955;BME280;57279;55.912;37.490;2023-04-06T12:46:26;100054.66;;;15.15;37.45
69955;BME280;57279;55.912;37.490;2023-04-06T12:48:52;100058.50;;;15.19;37.65
69955;BME280;57279;55.912;37.490;2023-04-06T12:51:22;100053.06;;;15.19;37.23
69955;BME280;57279;55.912;37.490;2023-04-06T12:53:47;100051.94;;;15.25;36.83
69955;BME280;57279;55.912;37.490;2023-04-06T12:56:15;100056.28;;;15.37;36.78
69955;BME280;57279;55.912;37.490;2023-04-06T12:58:43;100051.94;;;15.25;36.93
69955;BME280;57279;55.912;37.490;2023-04-06T13:01:09;100054.69;;;15.05;37.13
69955;BME280;57279;55.912;37.490;2023-04-06T13:03:37;100049.50;;;15.03;36.86
69955;BME280;57279;55.912;37.490;2023-04-06T13:06:02;100059.56;;;15.29;36.48
69955;BME280;57279;55.912;37.490;2023-04-06T13:08:28;100050.31;;;15.24;36.67
69955;BME280;57279;55.912;37.490;2023-04-06T13:10:54;100043.78;;;15.15;37.11
69955;BME280;57279;55.912;37.490;2023-04-06T13:13:25;100040.00;;;15.16;36.76
69955;BME280;57279;55.912;37.490;2023-04-06T13:15:58;100043.78;;;15.25;35.84
69955;BME280;57279;55.912;37.490;2023-04-06T13:18:24;100040.50;;;15.44;35.41
69955;BME280;57279;55.912;37.490;2023-04-06T13:20:50;100045.59;;;15.66;34.89
69955;BME280;57279;55.912;37.490;2023-04-06T13:23:16;100044.25;;;15.58;35.45
69955;BME280;57279;55.912;37.490;2023-04-06T13:25:42;100039.16;;;15.21;35.32
69955;BME280;57279;55.912;37.490;2023-04-06T13:28:08;100039.44;;;14.94;35.71
69955;BME280;57279;55.912;37.490;2023-04-06T13:30:35;100039.47;;;14.68;36.49
69955;BME280;57279;55.912;37.490;2023-04-06T13:33:01;100042.38;;;14.56;36.32
69955;BME280;57279;55.912;37.490;2023-04-06T13:35:27;100039.66;;;14.36;35.99
69955;BME280;57279;55.912;37.490;2023-04-06T13:37:53;100036.88;;;14.20;35.69
69955;BME280;57279;55.912;37.490;2023-04-06T13:40:19;100033.03;;;14.06;35.81
69955;BME280;57279;55.912;37.490;2023-04-06T13:42:46;100034.09;;;14.00;36.03
69955;BME280;57279;55.912;37.490;2023-04-06T13:45:12;100043.81;;;13.85;35.79
69955;BME280;57279;55.912;37.490;2023-04-06T13:47:38;100035.38;;;13.77;36.18
69955;BME280;57279;55.912;37.490;2023-04-06T13:50:04;100038.31;;;13.70;35.53
69955;BME280;57279;55.912;37.490;2023-04-06T13:52:30;100033.91;;;13.59;35.99
69955;BME280;57279;55.912;37.490;2023-04-06T13:54:55;100026.00;;;13.52;36.20
69955;BME280;57279;55.912;37.490;2023-04-06T13:57:21;100035.72;;;13.43;36.67
69955;BME280;57279;55.912;37.490;2023-04-06T13:59:47;100036.41;;;13.28;36.38
69955;BME280;57279;55.912;37.490;2023-04-06T14:02:13;100041.78;;;13.23;36.09
69955;BME280;57279;55.912;37.490;2023-04-06T14:04:39;100039.25;;;13.11;35.20
69955;BME280;57279;55.912;37.490;2023-04-06T14:07:04;100043.84;;;13.05;35.80
69955;BME280;57279;55.912;37.490;2023-04-06T14:09:32;100037.84;;;13.03;35.78
69955;BME280;57279;55.912;37.490;2023-04-06T14:11:58;100035.09;;;12.98;35.46
69955;BME280;57279;55.912;37.490;2023-04-06T14:14:25;100040.19;;;12.89;35.07
69955;BME280;57279;55.912;37.490;2023-04-06T14:16:52;100027.41;;;12.85;35.05
69955;BME280;57279;55.912;37.490;2023-04-06T14:19:18;100033.34;;;12.82;35.60
69955;BME280;57279;55.912;37.490;2023-04-06T14:21:44;100026.50;;;12.74;35.19
69955;BME280;57279;55.912;37.490;2023-04-06T14:25:26;100029.97;;;12.64;35.27
69955;BME280;57279;55.912;37.490;2023-04-06T14:28:42;100032.13;;;12.67;35.98
69955;BME280;57279;55.912;37.490;2023-04-06T14:31:13;100036.94;;;12.60;36.13
69955;BME280;57279;55.912;37.490;2023-04-06T14:33:40;100032.00;;;12.52;35.83
69955;BME280;57279;55.912;37.490;2023-04-06T14:36:08;100036.09;;;12.55;36.50
69955;BME280;57279;55.912;37.490;2023-04-06T14:38:34;100029.53;;;12.50;36.53
69955;BME280;57279;55.912;37.490;2023-04-06T14:41:01;100034.09;;;12.45;36.17
69955;BME280;57279;55.912;37.490;2023-04-06T14:43:26;100037.56;;;12.40;35.84
69955;BME280;57279;55.912;37.490;2023-04-06T14:45:52;100037.50;;;12.35;36.11
69955;BME280;57279;55.912;37.490;2023-04-06T14:48:18;100044.44;;;12.26;36.31
69955;BME280;57279;55.912;37.490;2023-04-06T14:50:54;100038.47;;;12.24;36.21
69955;BME280;57279;55.912;37.490;2023-04-06T14:53:21;100043.56;;;12.20;35.86
69955;BME280;57279;55.912;37.490;2023-04-06T14:55:47;100033.25;;;12.17;36.62
69955;BME280;57279;55.912;37.490;2023-04-06T14:58:12;100036.72;;;12.12;36.66
69955;BME280;57279;55.912;37.490;2023-04-06T15:00:38;100037.97;;;12.05;35.92
69955;BME280;57279;55.912;37.490;2023-04-06T15:03:04;100034.69;;;11.98;36.11
69955;BME280;57279;55.912;37.490;2023-04-06T15:05:30;100043.28;;;11.95;35.69
69955;BME280;57279;55.912;37.490;2023-04-06T15:07:57;100035.94;;;11.90;36.46
69955;BME280;57279;55.912;37.490;2023-04-06T15:10:22;100051.25;;;11.84;35.81
69955;BME280;57279;55.912;37.490;2023-04-06T15:12:48;100048.47;;;11.79;36.32
69955;BME280;57279;55.912;37.490;2023-04-06T15:15:13;100044.88;;;11.73;36.10
69955;BME280;57279;55.912;37.490;2023-04-06T15:17:39;100048.91;;;11.71;36.74
69955;BME280;57279;55.912;37.490;2023-04-06T15:20:05;100050.16;;;11.63;36.58
69955;BME280;57279;55.912;37.490;2023-04-06T15:22:31;100059.81;;;11.59;36.65
69955;BME280;57279;55.912;37.490;2023-04-06T15:24:56;100057.41;;;11.58;36.44
69955;BME280;57279;55.912;37.490;2023-04-06T15:27:22;100061.16;;;11.57;36.51
69955;BME280;57279;55.912;37.490;2023-04-06T15:29:47;100059.44;;;11.50;36.34
69955;BME280;57279;55.912;37.490;2023-04-06T15:32:13;100060.75;;;11.48;36.24
69955;BME280;57279;55.912;37.490;2023-04-06T15:34:39;100070.75;;;11.47;36.63
69955;BME280;57279;55.912;37.490;2023-04-06T15:37:04;100070.09;;;11.40;36.54
69955;BME280;57279;55.912;37.490;2023-04-06T15:39:30;100067.41;;;11.40;37.04
69955;BME280;57279;55.912;37.490;2023-04-06T15:41:56;100063.31;;;11.38;37.21
69955;BME280;57279;55.912;37.490;2023-04-06T15:44:23;100072.19;;;11.33;37.17
69955;BME280;57279;55.912;37.490;2023-04-06T15:46:50;100079.97;;;11.29;36.89
69955;BME280;57279;55.912;37.490;2023-04-06T15:49:18;100076.59;;;11.22;36.42
69955;BME280;57279;55.912;37.490;2023-04-06T15:51:50;100083.81;;;11.17;36.68
69955;BME280;57279;55.912;37.490;2023-04-06T15:54:16;100074.56;;;11.12;36.96
69955;BME280;57279;55.912;37.490;2023-04-06T15:56:44;100075.44;;;11.01;37.14
69955;BME280;57279;55.912;37.490;2023-04-06T15:59:10;100083.81;;;11.00;37.62
69955;BME280;57279;55.912;37.490;2023-04-06T16:01:36;100087.06;;;11.02;37.95
69955;BME280;57279;55.912;37.490;2023-04-06T16:04:02;100078.81;;;10.91;38.02
69955;BME280;57279;55.912;37.490;2023-04-06T16:06:27;100090.09;;;10.88;38.75
69955;BME280;57279;55.912;37.490;2023-04-06T16:08:53;100089.53;;;10.86;39.16
69955;BME280;57279;55.912;37.490;2023-04-06T16:11:19;100096.13;;;10.79;39.53
69955;BME280;57279;55.912;37.490;2023-04-06T16:13:45;100097.34;;;10.71;39.53
69955;BME280;57279;55.912;37.490;2023-04-06T16:16:11;100103.81;;;10.70;39.53
69955;BME280;57279;55.912;37.490;2023-04-06T16:18:36;100105.00;;;10.62;39.88
69955;BME280;57279;55.912;37.490;2023-04-06T16:21:02;100110.22;;;10.52;39.38
69955;BME280;57279;55.912;37.490;2023-04-06T16:23:28;100109.56;;;10.45;39.58
69955;BME280;57279;55.912;37.490;2023-04-06T16:25:54;100110.88;;;10.42;39.46
69955;BME280;57279;55.912;37.490;2023-04-06T16:28:22;100116.16;;;10.37;39.84
69955;BME280;57279;55.912;37.490;2023-04-06T16:30:50;100116.06;;;10.32;39.80
69955;BME280;57279;55.912;37.490;2023-04-06T16:33:16;100113.47;;;10.25;39.26
69955;BME280;57279;55.912;37.490;2023-04-06T16:35:44;100115.69;;;10.16;39.82
69955;BME280;57279;55.912;37.490;2023-04-06T16:38:11;100129.34;;;10.10;39.63
69955;BME280;57279;55.912;37.490;2023-04-06T16:40:37;100124.56;;;10.00;39.64
69955;BME280;57279;55.912;37.490;2023-04-06T16:43:02;100126.31;;;9.94;39.50
69955;BME280;57279;55.912;37.490;2023-04-06T16:45:29;100133.13;;;9.85;39.07
69955;BME280;57279;55.912;37.490;2023-04-06T16:47:56;100131.72;;;9.83;39.40
69955;BME280;57279;55.912;37.490;2023-04-06T16:50:22;100134.66;;;9.81;39.83
69955;BME280;57279;55.912;37.490;2023-04-06T16:52:48;100132.66;;;9.76;39.87
69955;BME280;57279;55.912;37.490;2023-04-06T16:55:14;100144.03;;;9.67;39.12
69955;BME280;57279;55.912;37.490;2023-04-06T16:57:40;100141.47;;;9.60;39.20
69955;BME280;57279;55.912;37.490;2023-04-06T17:00:06;100150.25;;;9.55;39.65
69955;BME280;57279;55.912;37.490;2023-04-06T17:02:32;100142.63;;;9.52;39.04
69955;BME280;57279;55.912;37.490;2023-04-06T17:05:02;100150.81;;;9.46;38.64
69955;BME280;57279;55.912;37.490;2023-04-06T17:07:29;100150.59;;;9.35;38.78
69955;BME280;57279;55.912;37.490;2023-04-06T17:10:00;100152.69;;;9.33;39.08
69955;BME280;57279;55.912;37.490;2023-04-06T17:12:29;100153.16;;;9.30;39.37
69955;BME280;57279;55.912;37.490;2023-04-06T17:14:54;100161.56;;;9.22;38.52
69955;BME280;57279;55.912;37.490;2023-04-06T17:21:28;100160.34;;;9.06;39.01
69955;BME280;57279;55.912;37.490;2023-04-06T17:27:36;100173.56;;;8.96;39.45
69955;BME280;57279;55.912;37.490;2023-04-06T17:30:02;100168.63;;;8.93;39.08
69955;BME280;57279;55.912;37.490;2023-04-06T17:32:57;100179.13;;;8.83;38.70
69955;BME280;57279;55.912;37.490;2023-04-06T17:36:12;100177.94;;;8.78;38.93
69955;BME280;57279;55.912;37.490;2023-04-06T17:38:42;100181.56;;;8.72;38.88
69955;BME280;57279;55.912;37.490;2023-04-06T17:44:30;100185.13;;;8.66;39.38
69955;BME280;57279;55.912;37.490;2023-04-06T17:46:56;100193.47;;;8.65;39.27
69955;BME280;57279;55.912;37.490;2023-04-06T17:49:21;100180.53;;;8.55;39.29
69955;BME280;57279;55.912;37.490;2023-04-06T17:51:47;100184.72;;;8.51;39.15
69955;BME280;57279;55.912;37.490;2023-04-06T17:54:13;100188.53;;;8.43;39.31
69955;BME280;57279;55.912;37.490;2023-04-06T17:56:38;100192.47;;;8.40;39.69
69955;BME280;57279;55.912;37.490;2023-04-06T17:59:05;100188.38;;;8.38;39.75
69955;BME280;57279;55.912;37.490;2023-04-06T18:01:33;100191.94;;;8.32;39.23
69955;BME280;57279;55.912;37.490;2023-04-06T18:03:59;100201.06;;;8.31;39.60
69955;BME280;57279;55.912;37.490;2023-04-06T18:06:24;100200.25;;;8.30;40.07
69955;BME280;57279;55.912;37.490;2023-04-06T18:08:51;100205.91;;;8.22;39.90
69955;BME280;57279;55.912;37.490;2023-04-06T18:11:17;100201.22;;;8.17;40.02
69955;BME280;57279;55.912;37.490;2023-04-06T18:13:44;100207.88;;;8.15;40.28
69955;BME280;57279;55.912;37.490;2023-04-06T18:16:10;100199.47;;;8.05;39.81
69955;BME280;57279;55.912;37.490;2023-04-06T18:18:35;100202.00;;;7.99;40.58
69955;BME280;57279;55.912;37.490;2023-04-06T18:21:06;100201.72;;;7.89;40.10
69955;BME280;57279;55.912;37.490;2023-04-06T18:23:32;100204.22;;;7.84;40.12
69955;BME280;57279;55.912;37.490;2023-04-06T18:26:02;100212.53;;;7.82;40.43
69955;BME280;57279;55.912;37.490;2023-04-06T18:28:28;100210.50;;;7.78;39.82
69955;BME280;57279;55.912;37.490;2023-04-06T18:30:53;100210.72;;;7.76;40.15
69955;BME280;57279;55.912;37.490;2023-04-06T18:33:19;100213.84;;;7.73;40.55
69955;BME280;57279;55.912;37.490;2023-04-06T18:35:45;100209.13;;;7.69;40.49
69955;BME280;57279;55.912;37.490;2023-04-06T18:38:11;100216.16;;;7.70;40.67
69955;BME280;57279;55.912;37.490;2023-04-06T18:40:37;100218.06;;;7.62;40.93
69955;BME280;57279;55.912;37.490;2023-04-06T18:43:05;100219.34;;;7.60;41.28
69955;BME280;57279;55.912;37.490;2023-04-06T18:45:31;100216.88;;;7.58;41.32
69955;BME280;57279;55.912;37.490;2023-04-06T18:47:58;100215.28;;;7.51;41.39
69955;BME280;57279;55.912;37.490;2023-04-06T18:50:24;100218.59;;;7.46;41.66
69955;BME280;57279;55.912;37.490;2023-04-06T18:52:50;100227.53;;;7.40;41.63
69955;BME280;57279;55.912;37.490;2023-04-06T18:55:16;100216.59;;;7.35;41.61
69955;BME280;57279;55.912;37.490;2023-04-06T18:57:44;100230.50;;;7.32;41.79
69955;BME280;57279;55.912;37.490;2023-04-06T19:00:11;100232.00;;;7.21;41.62
69955;BME280;57279;55.912;37.490;2023-04-06T19:02:37;100226.84;;;7.19;42.18
69955;BME280;57279;55.912;37.490;2023-04-06T19:05:03;100229.38;;;7.14;42.06
69955;BME280;57279;55.912;37.490;2023-04-06T19:07:29;100232.47;;;7.11;42.16
69955;BME280;57279;55.912;37.490;2023-04-06T19:09:59;100228.38;;;7.09;41.79
69955;BME280;57279;55.912;37.490;2023-04-06T19:12:26;100224.22;;;7.06;42.07
69955;BME280;57279;55.912;37.490;2023-04-06T19:14:51;100227.97;;;7.05;42.59
69955;BME280;57279;55.912;37.490;2023-04-06T19:17:18;100221.59;;;6.99;42.10
69955;BME280;57279;55.912;37.490;2023-04-06T19:19:44;100224.72;;;6.96;42.12
69955;BME280;57279;55.912;37.490;2023-04-06T19:22:10;100231.94;;;6.96;42.59
69955;BME280;57279;55.912;37.490;2023-04-06T19:24:36;100228.03;;;6.92;42.66
69955;BME280;57279;55.912;37.490;2023-04-06T19:27:03;100230.53;;;6.87;42.39
69955;BME280;57279;55.912;37.490;2023-04-06T19:29:29;100231.00;;;6.83;42.27
69955;BME280;57279;55.912;37.490;2023-04-06T19:31:55;100223.13;;;6.82;42.67
69955;BME280;57279;55.912;37.490;2023-04-06T19:34:23;100222.94;;;6.77;42.27
69955;BME280;57279;55.912;37.490;2023-04-06T19:36:49;100223.59;;;6.72;42.68
69955;BME280;57279;55.912;37.490;2023-04-06T19:39:15;100228.97;;;6.65;42.64
69955;BME280;57279;55.912;37.490;2023-04-06T19:41:42;100236.03;;;6.60;42.44
69955;BME280;57279;55.912;37.490;2023-04-06T19:44:08;100232.13;;;6.56;42.44
69955;BME280;57279;55.912;37.490;2023-04-06T19:46:34;100225.31;;;6.53;42.73
69955;BME280;57279;55.912;37.490;2023-04-06T19:49:00;100229.84;;;6.53;42.96
69955;BME280;57279;55.912;37.490;2023-04-06T19:51:31;100239.97;;;6.51;42.87
69955;BME280;57279;55.912;37.490;2023-04-06T19:53:58;100235.84;;;6.48;43.33
69955;BME280;57279;55.912;37.490;2023-04-06T19:56:24;100231.34;;;6.42;42.94
69955;BME280;57279;55.912;37.490;2023-04-06T19:58:50;100231.97;;;6.37;43.07
69955;BME280;57279;55.912;37.490;2023-04-06T20:01:16;100227.03;;;6.34;43.25
69955;BME280;57279;55.912;37.490;2023-04-06T20:03:41;100226.63;;;6.31;43.27
69955;BME280;57279;55.912;37.490;2023-04-06T20:06:07;100233.44;;;6.26;43.97
69955;BME280;57279;55.912;37.490;2023-04-06T20:08:33;100233.66;;;6.25;43.22
69955;BME280;57279;55.912;37.490;2023-04-06T20:11:03;100235.31;;;6.19;43.64
69955;BME280;57279;55.912;37.490;2023-04-06T20:13:30;100235.94;;;6.15;43.24
69955;BME280;57279;55.912;37.490;2023-04-06T20:15:55;100231.84;;;6.05;43.71
69955;BME280;57279;55.912;37.490;2023-04-06T20:18:21;100226.06;;;6.02;43.89
69955;BME280;57279;55.912;37.490;2023-04-06T20:20:47;100227.09;;;6.01;43.99
69955;BME280;57279;55.912;37.490;2023-04-06T20:23:14;100229.78;;;6.01;44.15
69955;BME280;57279;55.912;37.490;2023-04-06T20:25:40;100226.47;;;5.99;43.94
69955;BME280;57279;55.912;37.490;2023-04-06T20:28:06;100231.22;;;5.97;44.29
69955;BME280;57279;55.912;37.490;2023-04-06T20:30:33;100233.06;;;5.90;44.34
69955;BME280;57279;55.912;37.490;2023-04-06T20:32:58;100237.19;;;5.85;44.54
69955;BME280;57279;55.912;37.490;2023-04-06T20:35:24;100242.34;;;5.87;44.10
69955;BME280;57279;55.912;37.490;2023-04-06T20:37:50;100230.16;;;5.84;43.97
69955;BME280;57279;55.912;37.490;2023-04-06T20:40:16;100233.69;;;5.78;44.37
69955;BME280;57279;55.912;37.490;2023-04-06T20:42:42;100239.03;;;5.78;44.63
69955;BME280;57279;55.912;37.490;2023-04-06T20:45:08;100238.63;;;5.75;44.58
69955;BME280;57279;55.912;37.490;2023-04-06T20:47:34;100234.72;;;5.71;44.46
69955;BME280;57279;55.912;37.490;2023-04-06T20:50:00;100239.66;;;5.67;45.01
69955;BME280;57279;55.912;37.490;2023-04-06T20:52:26;100240.69;;;5.66;45.01
69955;BME280;57279;55.912;37.490;2023-04-06T20:54:52;100240.69;;;5.59;45.33
69955;BME280;57279;55.912;37.490;2023-04-06T20:57:19;100240.06;;;5.57;45.50
69955;BME280;57279;55.912;37.490;2023-04-06T20:59:45;100242.75;;;5.57;45.39
69955;BME280;57279;55.912;37.490;2023-04-06T21:02:11;100242.75;;;5.51;45.25
69955;BME280;57279;55.912;37.490;2023-04-06T21:04:37;100239.22;;;5.50;45.20
69955;BME280;57279;55.912;37.490;2023-04-06T21:07:06;100243.97;;;5.48;45.95
69955;BME280;57279;55.912;37.490;2023-04-06T21:09:38;100246.03;;;5.46;45.99
69955;BME280;57279;55.912;37.490;2023-04-06T21:12:05;100246.22;;;5.44;45.73
69955;BME280;57279;55.912;37.490;2023-04-06T21:14:31;100242.31;;;5.40;45.56
69955;BME280;57279;55.912;37.490;2023-04-06T21:16:57;100245.84;;;5.41;45.98
69955;BME280;57279;55.912;37.490;2023-04-06T21:19:24;100243.34;;;5.39;45.90
69955;BME280;57279;55.912;37.490;2023-04-06T21:21:52;100249.72;;;5.32;46.35
69955;BME280;57279;55.912;37.490;2023-04-06T21:24:18;100247.06;;;5.32;46.31
69955;BME280;57279;55.912;37.490;2023-04-06T21:26:45;100245.81;;;5.27;46.30
69955;BME280;57279;55.912;37.490;2023-04-06T21:29:10;100250.56;;;5.25;46.22
69955;BME280;57279;55.912;37.490;2023-04-06T21:31:36;100249.72;;;5.25;46.11
69955;BME280;57279;55.912;37.490;2023-04-06T21:34:09;100247.47;;;5.22;46.50
69955;BME280;57279;55.912;37.490;2023-04-06T21:36:36;100248.66;;;5.19;46.32
69955;BME280;57279;55.912;37.490;2023-04-06T21:39:03;100244.56;;;5.17;46.53
69955;BME280;57279;55.912;37.490;2023-04-06T21:41:29;100248.47;;;5.14;46.67
69955;BME280;57279;55.912;37.490;2023-04-06T21:43:55;100252.16;;;5.13;47.00
69955;BME280;57279;55.912;37.490;2023-04-06T21:46:20;100250.09;;;5.08;47.10
69955;BME280;57279;55.912;37.490;2023-04-06T21:48:46;100247.19;;;5.03;46.97
69955;BME280;57279;55.912;37.490;2023-04-06T21:51:19;100249.63;;;4.98;47.31
69955;BME280;57279;55.912;37.490;2023-04-06T21:53:45;100256.66;;;4.99;47.15
69955;BME280;57279;55.912;37.490;2023-04-06T21:56:11;100254.38;;;4.96;47.77
69955;BME280;57279;55.912;37.490;2023-04-06T21:58:36;100249.63;;;4.92;47.08
69955;BME280;57279;55.912;37.490;2023-04-06T22:01:08;100260.72;;;4.88;47.44
69955;BME280;57279;55.912;37.490;2023-04-06T22:03:34;100255.19;;;4.90;47.41
69955;BME280;57279;55.912;37.490;2023-04-06T22:06:04;100252.91;;;4.87;47.62
69955;BME280;57279;55.912;37.490;2023-04-06T22:08:31;100253.75;;;4.87;47.85
69955;BME280;57279;55.912;37.490;2023-04-06T22:10:57;100259.47;;;4.84;48.04
69955;BME280;57279;55.912;37.490;2023-04-06T22:13:26;100261.53;;;4.82;48.33
69955;BME280;57279;55.912;37.490;2023-04-06T22:15:53;100253.69;;;4.81;48.13
69955;BME280;57279;55.912;37.490;2023-04-06T22:18:19;100261.31;;;4.77;48.29
69955;BME280;57279;55.912;37.490;2023-04-06T22:20:45;100255.53;;;4.74;48.49
69955;BME280;57279;55.912;37.490;2023-04-06T22:23:11;100252.41;;;4.70;48.16
69955;BME280;57279;55.912;37.490;2023-04-06T22:25:37;100246.25;;;4.69;48.60
69955;BME280;57279;55.912;37.490;2023-04-06T22:28:03;100253.66;;;4.67;48.62
69955;BME280;57279;55.912;37.490;2023-04-06T22:30:32;100249.53;;;4.65;48.57
69955;BME280;57279;55.912;37.490;2023-04-06T22:32:58;100242.94;;;4.61;48.53
69955;BME280;57279;55.912;37.490;2023-04-06T22:35:23;100248.25;;;4.54;48.35
69955;BME280;57279;55.912;37.490;2023-04-06T22:37:49;100249.06;;;4.55;48.69
69955;BME280;57279;55.912;37.490;2023-04-06T22:40:15;100250.28;;;4.52;48.62
69955;BME280;57279;55.912;37.490;2023-04-06T22:42:40;100246.78;;;4.52;48.76
69955;BME280;57279;55.912;37.490;2023-04-06T22:45:06;100244.31;;;4.50;49.10
69955;BME280;57279;55.912;37.490;2023-04-06T22:47:33;100247.81;;;4.50;48.81
69955;BME280;57279;55.912;37.490;2023-04-06T22:49:58;100244.88;;;4.45;48.92
69955;BME280;57279;55.912;37.490;2023-04-06T22:52:24;100242.44;;;4.44;48.91
69955;BME280;57279;55.912;37.490;2023-04-06T22:54:50;100245.69;;;4.39;49.00
69955;BME280;57279;55.912;37.490;2023-04-06T22:57:15;100246.72;;;4.38;48.82
69955;BME280;57279;55.912;37.490;2023-04-06T22:59:41;100242.38;;;4.37;49.15
69955;BME280;57279;55.912;37.490;2023-04-06T23:02:07;100250.81;;;4.34;48.88